Time;durP1;ratioP1;P1;durP2;ratioP2;P2;SDS_P1;SDS_P2;PMS_P1;PMS_P2;Temp;Humidity;BMP_temperature;BMP_pressure;BME280_temperature;BME280_humidity;BME280_pressure;Samples;Min_cycle;Max_cycle;Signal;HPM_P1;HPM_P2
2022/05/15 00:00:38;;;;;;;4.18;1.85;;;;;;;11.44;64.94;96764.81;2079223;28;20203;-68
2022/05/15 00:01:39;;;;;;;7.90;2.97;;;;;;;11.44;64.83;96768.25;2074768;28;20247;-68
2022/05/15 00:02:41;;;;;;;6.53;2.22;;;;;;;11.11;64.89;96726.22;2093512;28;20247;-68
2022/05/15 00:03:43;;;;;;;3.80;2.35;;;;;;;11.39;64.55;96762.38;2081088;28;20738;-68
2022/05/15 00:04:44;;;;;;;8.02;2.63;;;;;;;11.51;64.67;96762.75;2083044;28;20204;-68
2022/05/15 00:05:59;;;;;;;7.18;2.10;;;;;;;11.54;64.88;96767.81;2076940;28;20201;-68
2022/05/15 00:07:02;;;;;;;8.52;2.35;;;;;;;11.40;64.69;96748.41;2076671;28;20273;-68
2022/05/15 00:08:04;;;;;;;4.85;2.35;;;;;;;11.44;65.13;96757.78;2082234;28;20524;-68
2022/05/15 00:09:05;;;;;;;8.98;2.60;;;;;;;11.35;65.04;96736.44;2083101;28;20759;-68
2022/05/15 00:10:07;;;;;;;7.47;2.47;;;;;;;11.46;64.77;96755.09;2082514;28;20214;-68
2022/05/15 00:11:12;;;;;;;7.20;2.85;;;;;;;11.45;64.53;96758.63;2072826;28;20580;-68
2022/05/15 00:12:16;;;;;;;3.95;2.00;;;;;;;11.36;64.38;96744.22;2090475;28;20699;-66
2022/05/15 00:13:18;;;;;;;4.18;2.00;;;;;;;11.33;64.87;96752.22;2088769;28;20208;-65
2022/05/15 00:14:19;;;;;;;6.45;2.50;;;;;;;11.26;64.90;96754.25;2084677;28;20225;-66
2022/05/15 00:15:21;;;;;;;5.72;1.88;;;;;;;11.27;65.40;96755.09;2083070;28;20223;-66
2022/05/15 00:16:24;;;;;;;5.25;2.60;;;;;;;11.19;65.22;96747.59;2077170;28;20216;-65
2022/05/15 00:17:26;;;;;;;7.85;2.10;;;;;;;11.17;65.49;96753.81;2090388;28;20651;-66
2022/05/15 00:18:27;;;;;;;7.82;2.30;;;;;;;11.17;65.75;96749.44;2085542;28;20210;-65
2022/05/15 00:19:29;;;;;;;3.33;2.10;;;;;;;11.07;65.81;96745.53;2082458;28;20215;-65
2022/05/15 00:20:31;;;;;;;6.35;2.42;;;;;;;11.12;65.36;96735.72;2083107;28;20591;-66
2022/05/15 00:21:33;;;;;;;6.22;2.10;;;;;;;11.10;65.50;96734.97;2076113;28;20589;-66
2022/05/15 00:22:35;;;;;;;8.00;2.70;;;;;;;11.12;65.98;96751.41;2091703;28;20215;-66
2022/05/15 00:23:38;;;;;;;9.75;2.40;;;;;;;10.97;65.37;96715.53;2087628;28;20210;-66
2022/05/15 00:24:40;;;;;;;7.68;3.08;;;;;;;11.22;65.70;96747.47;2083563;28;20203;-66
2022/05/15 00:25:41;;;;;;;4.03;2.20;;;;;;;11.24;65.76;96757.88;2082449;28;20658;-66
2022/05/15 00:26:43;;;;;;;8.98;2.40;;;;;;;11.21;65.75;96751.00;2078305;28;20226;-66
2022/05/15 00:27:44;;;;;;;4.20;2.40;;;;;;;11.17;65.75;96757.28;2091584;28;20203;-66
2022/05/15 00:28:46;;;;;;;6.28;1.95;;;;;;;11.20;65.80;96756.28;2084345;28;20615;-66
2022/05/15 00:29:47;;;;;;;5.93;2.50;;;;;;;11.23;65.42;96758.78;2081524;28;20218;-66
2022/05/15 00:30:49;;;;;;;11.40;2.45;;;;;;;11.05;65.28;96739.56;2085429;28;20206;-65
2022/05/15 00:31:54;;;;;;;8.55;2.70;;;;;;;11.10;65.91;96748.03;2078958;28;20669;-65
2022/05/15 00:32:56;;;;;;;7.28;2.38;;;;;;;11.09;66.06;96754.19;2084144;28;20195;-65
2022/05/15 00:33:57;;;;;;;6.00;2.58;;;;;;;11.10;65.72;96758.50;2085040;28;20660;-65
2022/05/15 00:34:58;;;;;;;5.40;2.97;;;;;;;11.10;65.97;96753.25;2085186;28;20243;-66
2022/05/15 00:36:01;;;;;;;5.68;2.25;;;;;;;11.16;65.75;96757.34;2074690;28;20216;-65
2022/05/15 00:37:03;;;;;;;3.33;2.33;;;;;;;11.11;66.10;96750.56;2088656;28;20199;-66
2022/05/15 00:38:07;;;;;;;9.32;2.50;;;;;;;11.18;65.78;96751.13;2086251;28;20207;-65
2022/05/15 00:39:08;;;;;;;5.47;2.35;;;;;;;11.06;66.39;96741.25;2081554;28;20197;-66
2022/05/15 00:40:13;;;;;;;4.05;2.20;;;;;;;11.09;66.22;96746.34;2082554;28;20199;-65
2022/05/15 00:41:15;;;;;;;6.80;2.20;;;;;;;11.02;66.04;96737.94;2065670;28;20316;-66
2022/05/15 00:42:17;;;;;;;5.90;2.00;;;;;;;11.11;66.16;96749.75;2067947;28;20206;-65
2022/05/15 00:43:34;;;;;;;5.53;2.20;;;;;;;11.08;65.95;96750.72;2084498;28;20208;-66
2022/05/15 00:44:35;;;;;;;5.00;2.60;;;;;;;11.01;66.07;96744.06;2080175;28;20198;-66
2022/05/15 00:45:37;;;;;;;5.68;1.98;;;;;;;10.94;66.48;96746.13;2078927;28;20202;-65
2022/05/15 00:46:41;;;;;;;7.00;2.50;;;;;;;10.91;66.53;96741.00;2073239;28;20640;-65
2022/05/15 00:47:42;;;;;;;5.35;2.50;;;;;;;10.90;66.74;96725.41;2085821;28;20206;-65
2022/05/15 00:48:45;;;;;;;6.85;3.47;;;;;;;11.03;66.45;96742.22;2084853;28;20194;-65
2022/05/15 00:49:47;;;;;;;4.50;2.40;;;;;;;10.98;66.84;96738.97;2083234;28;20324;-65
2022/05/15 00:50:50;;;;;;;9.15;2.00;;;;;;;10.97;66.46;96746.88;2082392;28;20197;-66
2022/05/15 00:51:58;;;;;;;6.95;2.45;;;;;;;10.99;66.17;96745.88;2079672;28;20285;-66
2022/05/15 00:53:05;;;;;;;6.07;2.38;;;;;;;11.02;66.37;96737.06;2089479;28;20201;-65
2022/05/15 00:54:23;;;;;;;7.43;2.10;;;;;;;10.94;66.93;96737.41;2076331;28;20199;-66
2022/05/15 00:55:33;;;;;;;5.40;2.20;;;;;;;10.82;66.98;96738.81;2070162;28;20215;-65
2022/05/15 00:56:39;;;;;;;4.55;2.20;;;;;;;10.75;66.93;96737.38;2074570;28;20577;-66
2022/05/15 00:57:47;;;;;;;4.95;2.40;;;;;;;10.85;67.06;96737.84;2089576;28;20202;-66
2022/05/15 00:58:56;;;;;;;7.82;2.80;;;;;;;10.82;66.96;96738.81;2082843;28;20204;-66
2022/05/15 01:00:14;;;;;;;4.18;1.98;;;;;;;10.73;67.08;96744.44;2083948;28;20197;-66
2022/05/15 01:01:18;;;;;;;6.90;2.92;;;;;;;10.76;67.26;96739.09;2077487;28;20265;-66
2022/05/15 01:02:22;;;;;;;3.75;1.90;;;;;;;10.71;67.68;96735.81;2086185;28;20247;-65
2022/05/15 01:03:24;;;;;;;4.40;2.50;;;;;;;10.51;67.57;96700.97;2087446;28;20210;-65
2022/05/15 01:04:25;;;;;;;2.85;1.85;;;;;;;10.65;67.97;96726.47;2086062;28;20673;-65
2022/05/15 01:05:27;;;;;;;9.32;2.78;;;;;;;10.65;67.94;96730.88;2082278;28;20636;-66
2022/05/15 01:06:29;;;;;;;4.30;2.08;;;;;;;10.60;67.78;96731.91;2077386;28;20251;-65
2022/05/15 01:07:31;;;;;;;5.25;2.15;;;;;;;10.63;67.70;96733.53;2083184;28;20220;-66
2022/05/15 01:08:32;;;;;;;5.70;2.22;;;;;;;10.55;67.66;96717.34;2083737;28;20196;-65
2022/05/15 01:09:34;;;;;;;6.65;2.95;;;;;;;10.58;67.66;96728.50;2084938;28;20291;-65
2022/05/15 01:10:39;;;;;;;3.00;1.90;;;;;;;10.49;68.17;96725.44;2086405;28;20678;-66
2022/05/15 01:11:44;;;;;;;5.07;2.30;;;;;;;10.27;68.32;96706.31;2080237;28;20614;-66
2022/05/15 01:12:45;;;;;;;3.40;2.05;;;;;;;10.42;68.50;96732.69;2094278;28;20196;-66
2022/05/15 01:13:51;;;;;;;6.30;2.05;;;;;;;10.48;68.12;96734.22;2079708;28;20199;-65
2022/05/15 01:14:53;;;;;;;8.35;2.78;;;;;;;10.57;68.34;96728.59;2074759;28;20209;-66
2022/05/15 01:15:54;;;;;;;6.63;2.33;;;;;;;10.56;67.75;96743.41;2067751;28;20205;-66
2022/05/15 01:16:56;;;;;;;3.70;2.08;;;;;;;10.56;68.03;96727.75;2081308;28;20549;-66
2022/05/15 01:17:58;;;;;;;6.80;2.13;;;;;;;10.58;67.93;96725.06;2082215;28;20284;-66
2022/05/15 01:19:01;;;;;;;4.00;2.55;;;;;;;10.52;67.91;96731.38;2083019;28;20207;-66
2022/05/15 01:20:08;;;;;;;9.15;2.65;;;;;;;10.57;67.54;96732.03;2080168;28;20248;-65
2022/05/15 01:21:24;;;;;;;4.30;2.17;;;;;;;10.56;67.68;96738.19;2071470;28;20196;-66
2022/05/15 01:22:25;;;;;;;4.70;2.25;;;;;;;10.42;68.14;96737.91;2090860;28;20196;-65
2022/05/15 01:23:30;;;;;;;6.55;2.80;;;;;;;10.44;67.95;96734.34;2085796;28;20226;-66
2022/05/15 01:24:32;;;;;;;2.72;1.95;;;;;;;10.27;68.74;96728.94;2083415;28;20203;-66
2022/05/15 01:25:36;;;;;;;4.60;2.20;;;;;;;10.37;68.45;96729.44;2079811;28;20494;-66
2022/05/15 01:26:38;;;;;;;10.65;2.45;;;;;;;10.47;67.73;96735.97;2080566;28;20239;-65
2022/05/15 01:27:45;;;;;;;8.38;2.55;;;;;;;10.49;67.82;96720.22;2082240;28;20204;-65
2022/05/15 01:28:47;;;;;;;5.70;2.33;;;;;;;10.54;67.89;96729.56;2083040;28;20200;-65
2022/05/15 01:29:49;;;;;;;4.15;2.53;;;;;;;10.41;68.13;96720.56;2083066;28;20223;-66
2022/05/15 01:30:53;;;;;;;5.80;2.60;;;;;;;10.49;68.32;96735.88;2081638;28;20217;-65
2022/05/15 01:31:56;;;;;;;8.35;2.65;;;;;;;10.34;68.33;96724.34;2081073;28;20197;-66
2022/05/15 01:32:57;;;;;;;5.25;2.30;;;;;;;10.42;68.24;96724.88;2083230;28;20262;-65
2022/05/15 01:33:59;;;;;;;4.90;2.50;;;;;;;10.41;68.51;96724.03;2084848;28;20197;-65
2022/05/15 01:35:01;;;;;;;4.35;2.63;;;;;;;10.39;68.51;96730.22;2085146;28;20292;-65
2022/05/15 01:36:02;;;;;;;4.38;2.55;;;;;;;10.39;68.78;96736.28;2074472;28;20220;-65
2022/05/15 01:37:06;;;;;;;5.10;2.50;;;;;;;10.39;68.90;96727.63;2082572;28;20198;-65
2022/05/15 01:38:07;;;;;;;7.57;2.55;;;;;;;10.39;68.60;96736.28;2089411;28;20193;-65
2022/05/15 01:39:09;;;;;;;14.57;2.83;;;;;;;10.35;68.55;96729.47;2083413;28;20554;-65
2022/05/15 01:40:11;;;;;;;5.05;2.17;;;;;;;10.32;68.33;96733.97;2083049;28;20204;-66
2022/05/15 01:41:13;;;;;;;5.35;2.38;;;;;;;10.35;68.50;96733.84;2072039;28;20213;-66
2022/05/15 01:42:15;;;;;;;9.35;2.20;;;;;;;10.22;67.71;96721.31;2088124;28;20204;-65
2022/05/15 01:43:17;;;;;;;6.53;2.95;;;;;;;10.18;68.20;96738.00;2082700;28;20599;-66
2022/05/15 01:44:19;;;;;;;14.85;2.78;;;;;;;9.99;68.75;96724.03;2078481;28;20208;-66
2022/05/15 01:45:20;;;;;;;5.90;2.50;;;;;;;9.94;68.45;96700.72;2078787;28;20225;-66
2022/05/15 01:46:24;;;;;;;5.45;2.42;;;;;;;10.08;68.87;96727.13;2079599;28;20313;-66
2022/05/15 01:47:26;;;;;;;3.58;2.13;;;;;;;10.16;68.89;96726.78;2082279;28;20194;-66
2022/05/15 01:48:31;;;;;;;11.77;2.63;;;;;;;10.24;68.40;96734.31;2079692;28;20198;-66
2022/05/15 01:49:33;;;;;;;6.78;2.72;;;;;;;10.23;68.50;96735.22;2082034;28;20559;-66
2022/05/15 01:50:34;;;;;;;3.78;2.10;;;;;;;10.24;68.26;96736.91;2081849;28;20297;-66
2022/05/15 01:51:39;;;;;;;4.82;2.40;;;;;;;9.95;68.76;96728.53;2077446;28;20235;-67
2022/05/15 01:52:42;;;;;;;5.35;2.30;;;;;;;10.04;69.24;96735.97;2090911;28;20673;-67
2022/05/15 01:53:44;;;;;;;5.30;2.80;;;;;;;10.06;69.30;96730.69;2084993;28;20194;-66
2022/05/15 01:54:45;;;;;;;9.88;2.45;;;;;;;10.04;69.33;96732.50;2083312;28;20208;-66
2022/05/15 01:55:47;;;;;;;9.07;2.97;;;;;;;10.01;69.65;96735.25;2085105;28;20199;-66
2022/05/15 01:56:49;;;;;;;5.63;2.95;;;;;;;10.03;69.37;96736.03;2075225;28;20231;-66
2022/05/15 01:57:50;;;;;;;5.75;2.70;;;;;;;10.07;69.22;96745.44;2090797;28;20212;-66
2022/05/15 01:58:52;;;;;;;5.00;3.08;;;;;;;10.02;69.14;96742.16;2087195;28;20569;-66
2022/05/15 01:59:53;;;;;;;3.80;2.40;;;;;;;9.95;69.62;96736.34;2083051;28;20205;-66
2022/05/15 02:00:55;;;;;;;6.22;2.20;;;;;;;9.99;69.31;96737.91;2070631;28;20221;-66
2022/05/15 02:01:57;;;;;;;7.32;2.67;;;;;;;10.04;69.37;96738.56;2093512;28;20200;-66
2022/05/15 02:02:58;;;;;;;16.05;3.15;;;;;;;9.99;69.12;96740.53;2090232;28;20292;-66
2022/05/15 02:04:00;;;;;;;5.07;2.55;;;;;;;9.89;69.40;96733.97;2081772;28;20202;-66
2022/05/15 02:05:02;;;;;;;4.90;2.72;;;;;;;9.88;69.55;96727.06;2085039;28;20779;-66
2022/05/15 02:06:04;;;;;;;7.38;2.85;;;;;;;9.75;69.90;96724.09;2062345;28;20206;-66
2022/05/15 02:07:06;;;;;;;6.70;2.70;;;;;;;9.79;69.75;96736.97;2072610;28;20202;-66
2022/05/15 02:08:08;;;;;;;6.63;2.35;;;;;;;9.84;69.77;96730.72;2088937;28;20203;-66
2022/05/15 02:09:09;;;;;;;4.80;2.60;;;;;;;9.83;69.93;96731.63;2083817;28;20204;-66
2022/05/15 02:10:12;;;;;;;4.07;2.40;;;;;;;9.79;69.86;96739.56;2082460;28;20201;-66
2022/05/15 02:11:14;;;;;;;6.63;2.65;;;;;;;9.58;69.75;96693.50;2074724;28;20231;-66
2022/05/15 02:12:16;;;;;;;5.50;2.90;;;;;;;9.93;69.42;96733.81;2090094;28;20653;-66
2022/05/15 02:13:17;;;;;;;8.80;2.10;;;;;;;9.95;69.15;96729.38;2086505;28;20204;-66
2022/05/15 02:14:19;;;;;;;5.80;2.33;;;;;;;9.94;69.17;96740.72;2082371;28;20217;-66
2022/05/15 02:15:20;;;;;;;7.72;2.50;;;;;;;9.83;69.23;96732.47;2081530;28;20220;-66
2022/05/15 02:16:22;;;;;;;4.75;2.80;;;;;;;9.71;69.61;96736.41;2078105;28;20221;-66
2022/05/15 02:17:24;;;;;;;6.55;2.55;;;;;;;9.66;69.98;96733.13;2092441;28;20899;-66
2022/05/15 02:18:26;;;;;;;7.30;2.88;;;;;;;9.69;69.98;96726.94;2087783;28;20201;-66
2022/05/15 02:19:28;;;;;;;5.85;2.58;;;;;;;9.70;69.88;96734.75;2084725;28;20196;-66
2022/05/15 02:20:33;;;;;;;4.97;3.05;;;;;;;9.71;70.47;96732.97;2085416;28;20241;-66
2022/05/15 02:21:35;;;;;;;6.13;2.65;;;;;;;9.68;69.98;96718.28;2079438;28;20376;-66
2022/05/15 02:22:38;;;;;;;4.68;2.75;;;;;;;9.62;69.73;96697.69;2090186;28;20196;-67
2022/05/15 02:23:40;;;;;;;3.92;2.47;;;;;;;9.73;69.81;96723.34;2084556;28;20206;-66
2022/05/15 02:24:41;;;;;;;7.15;2.50;;;;;;;9.75;69.57;96724.09;2086534;28;20206;-66
2022/05/15 02:25:42;;;;;;;6.95;2.40;;;;;;;9.71;69.75;96719.94;2085452;28;20216;-66
2022/05/15 02:26:44;;;;;;;6.32;3.53;;;;;;;9.75;69.70;96729.31;2080727;28;20220;-66
2022/05/15 02:27:46;;;;;;;7.30;3.20;;;;;;;9.79;69.75;96733.53;2090502;28;20195;-66
2022/05/15 02:28:48;;;;;;;6.88;2.88;;;;;;;9.80;69.71;96728.25;2085314;28;20197;-66
2022/05/15 02:29:49;;;;;;;7.03;3.05;;;;;;;9.72;70.00;96721.63;2086758;28;20559;-66
2022/05/15 02:30:51;;;;;;;5.45;2.80;;;;;;;9.64;70.23;96729.75;2088343;28;20672;-66
2022/05/15 02:31:52;;;;;;;6.82;2.60;;;;;;;9.64;70.07;96721.94;2082005;28;20215;-66
2022/05/15 02:32:54;;;;;;;4.25;2.40;;;;;;;9.64;70.13;96722.78;2092646;28;20447;-66
2022/05/15 02:33:56;;;;;;;5.63;2.90;;;;;;;9.56;69.80;96690.97;2085610;28;20200;-66
2022/05/15 02:34:57;;;;;;;8.27;2.70;;;;;;;9.70;70.14;96713.88;2085039;28;20215;-66
2022/05/15 02:36:00;;;;;;;5.22;2.72;;;;;;;9.76;69.98;96717.97;2076844;28;20197;-66
2022/05/15 02:37:02;;;;;;;5.00;3.10;;;;;;;9.74;70.07;96728.47;2090213;28;20209;-66
2022/05/15 02:38:04;;;;;;;10.43;3.17;;;;;;;9.72;70.40;96725.06;2087399;28;20706;-66
2022/05/15 02:39:06;;;;;;;4.32;2.60;;;;;;;9.63;70.85;96726.28;2082348;28;20204;-66
2022/05/15 02:40:09;;;;;;;8.07;2.50;;;;;;;9.64;70.41;96728.00;2084209;28;20196;-66
2022/05/15 02:41:11;;;;;;;7.22;3.22;;;;;;;9.58;70.52;96711.75;2077182;28;20196;-66
2022/05/15 02:42:13;;;;;;;6.65;2.63;;;;;;;9.70;70.22;96729.53;2092721;28;20196;-66
2022/05/15 02:43:14;;;;;;;7.03;2.90;;;;;;;9.70;70.17;96723.44;2090469;28;20560;-66
2022/05/15 02:44:15;;;;;;;12.80;3.20;;;;;;;9.59;70.75;96716.06;2085824;28;20201;-66
2022/05/15 02:45:17;;;;;;;5.50;2.38;;;;;;;9.59;70.79;96722.13;2072105;28;20205;-66
2022/05/15 02:46:18;;;;;;;9.30;2.83;;;;;;;9.59;70.55;96716.91;2062475;28;20233;-66
2022/05/15 02:47:23;;;;;;;8.95;3.13;;;;;;;9.71;70.43;96723.38;2091848;28;20227;-67
2022/05/15 02:51:04;;;;;;;6.05;2.83;;;;;;;9.64;70.51;96722.78;2076763;28;20207;-66
2022/05/15 02:52:07;;;;;;;7.68;3.20;;;;;;;9.57;70.65;96716.13;2092046;28;20703;-66
2022/05/15 02:53:09;;;;;;;11.60;3.53;;;;;;;9.56;71.12;96721.38;2086939;28;20643;-66
2022/05/15 02:54:11;;;;;;;9.23;3.40;;;;;;;9.55;70.79;96717.94;2082710;28;20201;-66
2022/05/15 02:55:12;;;;;;;9.15;3.55;;;;;;;9.53;71.25;96711.09;2082775;28;20192;-66
2022/05/15 02:56:19;;;;;;;8.65;2.72;;;;;;;9.58;71.00;96711.75;2077489;28;20260;-66
2022/05/15 02:57:21;;;;;;;6.53;3.20;;;;;;;9.58;70.62;96723.00;2092229;28;20247;-66
2022/05/15 02:58:22;;;;;;;10.02;3.70;;;;;;;9.50;70.99;96716.41;2088401;28;20667;-66
2022/05/15 02:59:24;;;;;;;5.25;2.92;;;;;;;9.39;71.25;96709.03;2084386;28;20197;-66
2022/05/15 03:00:27;;;;;;;5.47;3.28;;;;;;;9.45;71.42;96716.59;2085139;28;20201;-66
2022/05/15 03:01:28;;;;;;;13.32;3.65;;;;;;;9.32;71.66;96704.03;2076399;28;20220;-66
2022/05/15 03:02:30;;;;;;;7.07;2.90;;;;;;;9.37;71.35;96710.81;2091629;28;20238;-66
2022/05/15 03:03:32;;;;;;;6.60;3.25;;;;;;;9.37;71.95;96719.50;2087493;28;20203;-66
2022/05/15 03:04:36;;;;;;;7.97;3.33;;;;;;;9.37;71.09;96697.78;2081336;28;20193;-66
2022/05/15 03:05:38;;;;;;;7.00;3.05;;;;;;;9.41;71.73;96715.03;2081653;28;20194;-66
2022/05/15 03:06:39;;;;;;;9.30;3.55;;;;;;;9.42;71.47;96722.78;2078018;28;20231;-66
2022/05/15 03:07:42;;;;;;;6.30;2.95;;;;;;;9.43;71.31;96723.63;2090969;28;20203;-65
2022/05/15 03:08:48;;;;;;;10.57;3.25;;;;;;;9.36;71.54;96728.22;2088164;28;20200;-66
2022/05/15 03:09:49;;;;;;;4.35;2.95;;;;;;;9.38;71.82;96718.56;2079222;28;20197;-66
2022/05/15 03:10:51;;;;;;;4.80;3.28;;;;;;;9.36;71.50;96717.81;2080207;28;20208;-65
2022/05/15 03:11:53;;;;;;;6.30;2.97;;;;;;;9.37;71.80;96724.72;2071685;28;20232;-66
2022/05/15 03:12:55;;;;;;;9.75;3.70;;;;;;;9.39;71.58;96727.25;2080386;28;20197;-66
2022/05/15 03:13:57;;;;;;;5.60;2.83;;;;;;;9.24;71.89;96703.50;2081135;28;20198;-66
2022/05/15 03:14:58;;;;;;;6.22;2.90;;;;;;;9.42;71.61;96734.94;2084403;28;20212;-66
2022/05/15 03:16:00;;;;;;;8.90;2.95;;;;;;;9.38;71.42;96715.97;2072126;28;20197;-66
2022/05/15 03:17:01;;;;;;;10.45;3.22;;;;;;;9.45;71.02;96719.22;2089649;28;20596;-66
2022/05/15 03:18:03;;;;;;;4.97;3.25;;;;;;;9.44;70.77;96720.94;2092494;28;20196;-66
2022/05/15 03:19:05;;;;;;;5.60;2.85;;;;;;;9.06;71.17;96665.13;2086936;28;20208;-66
2022/05/15 03:20:07;;;;;;;7.63;3.03;;;;;;;9.42;71.31;96720.19;2081605;28;20576;-66
2022/05/15 03:21:10;;;;;;;7.65;3.10;;;;;;;9.41;71.08;96720.25;2074480;28;20197;-66
2022/05/15 03:22:12;;;;;;;11.90;2.83;;;;;;;9.42;71.20;96720.19;2091031;28;20253;-66
2022/05/15 03:23:13;;;;;;;4.47;2.92;;;;;;;9.32;70.98;96716.25;2089262;28;20648;-66
2022/05/15 03:24:15;;;;;;;7.93;3.65;;;;;;;9.41;70.80;96722.84;2084859;28;20599;-66
2022/05/15 03:25:17;;;;;;;11.73;2.88;;;;;;;9.38;70.72;96717.75;2084410;28;20196;-66
2022/05/15 03:26:18;;;;;;;8.45;2.60;;;;;;;9.28;70.77;96702.47;2077481;28;20287;-66
2022/05/15 03:27:20;;;;;;;6.93;3.10;;;;;;;9.31;71.54;96717.97;2093288;28;20191;-65
2022/05/15 03:28:21;;;;;;;8.05;2.95;;;;;;;9.36;70.94;96716.94;2090534;28;20204;-66
2022/05/15 03:29:23;;;;;;;7.30;2.72;;;;;;;9.36;71.33;96719.53;2081900;28;20196;-64
2022/05/15 03:30:25;;;;;;;7.35;2.97;;;;;;;9.20;71.56;96716.69;2083471;28;20201;-64
2022/05/15 03:31:27;;;;;;;9.38;2.70;;;;;;;9.28;71.49;96727.66;2079859;28;20244;-64
2022/05/15 03:32:30;;;;;;;4.82;2.85;;;;;;;9.26;71.71;96717.31;2086090;28;20204;-66
2022/05/15 03:33:32;;;;;;;5.68;2.85;;;;;;;9.26;71.53;96719.06;2082308;28;20198;-66
2022/05/15 03:34:33;;;;;;;7.65;3.22;;;;;;;9.12;72.37;96717.00;2084117;28;20193;-66
2022/05/15 03:35:36;;;;;;;9.30;3.10;;;;;;;8.97;72.03;96700.16;2085486;28;20204;-66
2022/05/15 03:36:40;;;;;;;5.70;2.35;;;;;;;9.01;72.31;96708.72;2082495;28;20224;-66
2022/05/15 03:37:42;;;;;;;3.53;2.50;;;;;;;9.08;71.95;96718.84;2089212;28;20212;-66
2022/05/15 03:38:45;;;;;;;5.75;2.63;;;;;;;9.14;71.89;96722.97;2083289;28;20200;-66
2022/05/15 03:39:47;;;;;;;4.78;2.70;;;;;;;9.17;72.23;96719.41;2081471;28;20208;-66
2022/05/15 03:40:48;;;;;;;5.60;3.30;;;;;;;9.12;72.08;96719.59;2081020;28;20197;-66
2022/05/15 03:41:51;;;;;;;7.65;3.38;;;;;;;9.07;72.21;96727.56;2079150;28;20221;-66
2022/05/15 03:42:52;;;;;;;4.00;2.50;;;;;;;9.10;71.96;96724.88;2090090;28;20201;-66
2022/05/15 03:43:54;;;;;;;4.45;2.80;;;;;;;9.13;71.83;96729.94;2083997;28;20200;-66
2022/05/15 03:44:55;;;;;;;5.65;2.80;;;;;;;9.09;71.77;96738.78;2091576;28;20660;-66
2022/05/15 03:45:57;;;;;;;6.80;2.65;;;;;;;9.02;71.55;96737.31;2081764;28;20207;-66
2022/05/15 03:46:59;;;;;;;7.18;3.15;;;;;;;8.87;71.58;96710.06;2092255;28;20196;-66
2022/05/15 03:48:03;;;;;;;11.02;2.92;;;;;;;9.04;71.43;96738.13;2092043;28;20252;-66
2022/05/15 03:49:05;;;;;;;8.98;2.50;;;;;;;8.93;71.47;96741.09;2080462;28;20244;-64
2022/05/15 03:50:09;;;;;;;6.22;2.97;;;;;;;8.87;71.57;96741.31;2082727;28;20208;-64
2022/05/15 03:51:10;;;;;;;5.15;2.42;;;;;;;8.85;71.63;96740.53;2077055;28;20729;-64
2022/05/15 03:52:12;;;;;;;3.83;2.72;;;;;;;8.77;71.99;96737.34;2083189;28;20644;-64
2022/05/15 03:53:13;;;;;;;3.45;2.40;;;;;;;8.65;72.09;96743.88;2086015;28;20185;-64
2022/05/15 03:54:15;;;;;;;12.65;2.60;;;;;;;8.70;72.10;96736.72;2086458;28;20189;-64
2022/05/15 03:55:17;;;;;;;5.88;2.83;;;;;;;8.65;71.98;96742.09;2082699;28;20205;-64
2022/05/15 03:56:49;;;;;;;4.82;2.70;;;;;;;8.54;72.57;96739.03;2076061;28;20220;-64
2022/05/15 03:57:43;;;;;;;4.72;3.15;;;;;;;8.70;71.88;96735.88;2092155;28;20242;-64
2022/05/15 03:58:44;;;;;;;5.13;2.67;;;;;;;8.56;72.32;96745.03;2086596;28;20200;-63
2022/05/15 03:59:46;;;;;;;3.72;2.30;;;;;;;8.64;71.81;96735.19;2083388;28;20283;-64
2022/05/15 04:00:48;;;;;;;9.15;3.00;;;;;;;8.72;71.93;96740.13;2086289;28;20197;-63
2022/05/15 04:01:50;;;;;;;8.52;2.95;;;;;;;8.94;71.13;96742.81;2075916;28;20272;-64
2022/05/15 04:02:51;;;;;;;5.88;2.67;;;;;;;9.02;71.27;96741.69;2085037;28;20196;-64
2022/05/15 04:03:53;;;;;;;3.78;2.40;;;;;;;9.03;70.83;96735.53;2082553;28;20201;-64
2022/05/15 04:04:55;;;;;;;4.32;2.85;;;;;;;9.06;71.03;96744.09;2082886;28;20204;-64
2022/05/15 04:05:57;;;;;;;8.38;2.53;;;;;;;9.03;71.17;96746.84;2083072;28;20208;-64
2022/05/15 04:07:00;;;;;;;5.03;2.60;;;;;;;9.04;70.82;96735.50;2084041;28;20219;-64
2022/05/15 04:08:02;;;;;;;5.10;2.90;;;;;;;8.91;71.87;96740.31;2081264;28;20235;-66
2022/05/15 04:09:05;;;;;;;8.50;3.05;;;;;;;8.94;71.52;96745.41;2083203;28;20208;-66
2022/05/15 04:10:07;;;;;;;6.82;2.90;;;;;;;8.92;71.38;96739.41;2084083;28;20197;-66
2022/05/15 04:11:08;;;;;;;6.68;2.45;;;;;;;8.94;71.88;96741.97;2070348;28;20250;-66
2022/05/15 04:12:12;;;;;;;5.57;2.40;;;;;;;8.87;71.59;96732.66;2090821;28;20199;-66
2022/05/15 04:13:13;;;;;;;6.47;2.80;;;;;;;8.86;71.25;96726.59;2089883;28;20195;-66
2022/05/15 04:14:14;;;;;;;5.03;3.22;;;;;;;9.03;71.11;96736.41;2086094;28;20197;-66
2022/05/15 04:15:16;;;;;;;6.13;2.90;;;;;;;9.06;71.23;96719.81;2086506;28;20196;-66
2022/05/15 04:16:18;;;;;;;3.78;2.35;;;;;;;9.20;70.97;96737.53;2080364;28;20726;-66
2022/05/15 04:17:19;;;;;;;15.30;3.05;;;;;;;9.24;71.19;96736.50;2094016;28;20195;-66
2022/05/15 04:18:21;;;;;;;4.78;2.85;;;;;;;9.24;71.26;96729.56;2089708;28;20204;-65
2022/05/15 04:19:23;;;;;;;8.38;2.60;;;;;;;9.14;71.30;96709.94;2084163;28;20196;-66
2022/05/15 04:20:28;;;;;;;8.00;3.17;;;;;;;9.31;71.44;96736.22;2082848;28;20312;-66
2022/05/15 04:21:36;;;;;;;5.18;3.72;;;;;;;9.13;71.72;96729.94;2074393;28;20266;-64
2022/05/15 04:22:39;;;;;;;4.47;2.28;;;;;;;9.09;71.35;96741.41;2091573;28;20252;-64
2022/05/15 04:23:41;;;;;;;6.93;2.80;;;;;;;9.11;71.68;96731.75;2082551;28;20768;-64
2022/05/15 04:24:42;;;;;;;5.20;2.13;;;;;;;9.20;71.16;96734.94;2079899;28;20640;-64
2022/05/15 04:25:45;;;;;;;8.02;3.15;;;;;;;9.30;71.31;96739.72;2080949;28;20212;-64
2022/05/15 04:26:47;;;;;;;9.07;2.63;;;;;;;9.38;71.25;96746.41;2079929;28;20314;-64
2022/05/15 04:27:48;;;;;;;4.07;2.58;;;;;;;9.34;71.34;96731.81;2089509;28;20651;-64
2022/05/15 04:28:50;;;;;;;4.25;2.15;;;;;;;9.29;71.52;96735.44;2082013;28;20321;-64
2022/05/15 04:29:52;;;;;;;9.57;2.97;;;;;;;9.22;70.98;96707.91;2081933;28;20591;-64
2022/05/15 04:30:53;;;;;;;4.60;2.50;;;;;;;9.42;71.24;96729.75;2066054;28;20201;-64
2022/05/15 04:31:58;;;;;;;6.95;3.53;;;;;;;9.38;71.11;96733.38;2075407;28;20212;-64
2022/05/15 04:32:59;;;;;;;5.18;3.13;;;;;;;9.35;71.06;96716.09;2076500;28;20204;-64
2022/05/15 04:34:02;;;;;;;6.07;2.63;;;;;;;9.56;70.95;96740.50;2071600;28;20665;-64
2022/05/15 04:35:06;;;;;;;4.13;2.45;;;;;;;9.37;71.52;96716.91;2084757;28;20290;-64
2022/05/15 04:36:08;;;;;;;8.23;3.17;;;;;;;9.49;71.39;96723.38;2072978;28;20203;-64
2022/05/15 04:37:10;;;;;;;5.63;2.92;;;;;;;9.56;71.15;96734.41;2089161;28;20200;-64
2022/05/15 04:38:11;;;;;;;3.83;2.78;;;;;;;9.56;71.04;96722.25;2089612;28;20211;-64
2022/05/15 04:39:12;;;;;;;8.35;2.90;;;;;;;9.58;71.13;96722.19;2084306;28;20197;-64
2022/05/15 04:40:21;;;;;;;4.15;3.10;;;;;;;9.66;71.05;96737.53;2081235;28;20200;-64
2022/05/15 04:41:23;;;;;;;5.68;2.42;;;;;;;9.61;71.07;96730.72;2080760;28;20224;-64
2022/05/15 04:42:25;;;;;;;12.38;4.68;;;;;;;9.64;71.55;96730.59;2082232;28;20204;-64
2022/05/15 04:43:26;;;;;;;8.30;2.83;;;;;;;9.70;71.31;96726.91;2082649;28;20675;-64
2022/05/15 04:44:27;;;;;;;8.73;3.05;;;;;;;9.69;71.54;96721.72;2076665;28;20559;-64
2022/05/15 04:45:29;;;;;;;5.47;2.40;;;;;;;9.64;71.10;96729.75;2077359;28;20193;-64
2022/05/15 04:46:31;;;;;;;10.52;3.05;;;;;;;9.57;71.57;96731.78;2073960;28;20217;-64
2022/05/15 04:47:32;;;;;;;6.82;2.92;;;;;;;9.52;71.99;96735.44;2088230;28;20201;-64
2022/05/15 04:48:35;;;;;;;4.35;2.28;;;;;;;9.58;72.02;96728.22;2084642;28;20208;-64
2022/05/15 04:49:37;;;;;;;7.32;3.90;;;;;;;9.78;70.98;96742.25;2082430;28;20196;-64
2022/05/15 04:50:39;;;;;;;6.43;2.70;;;;;;;9.78;70.71;96730.06;2084686;28;20201;-64
2022/05/15 04:51:40;;;;;;;8.25;2.95;;;;;;;9.75;70.28;96729.31;2080787;28;20785;-64
2022/05/15 04:52:41;;;;;;;3.60;2.00;;;;;;;9.73;70.58;96734.59;2091307;28;20199;-64
2022/05/15 04:53:43;;;;;;;8.77;2.85;;;;;;;9.56;71.70;96732.69;2081883;28;20223;-64
2022/05/15 04:54:44;;;;;;;3.65;2.55;;;;;;;9.64;71.13;96734.97;2079794;28;20205;-64
2022/05/15 04:55:46;;;;;;;3.85;2.80;;;;;;;9.79;71.40;96731.75;2071398;28;20201;-64
2022/05/15 04:56:47;;;;;;;7.47;2.35;;;;;;;10.04;70.63;96738.56;2061604;28;20221;-64
2022/05/15 04:57:49;;;;;;;5.82;3.05;;;;;;;10.01;71.30;96724.81;2086328;28;20197;-64
2022/05/15 04:58:51;;;;;;;4.45;2.28;;;;;;;9.93;70.82;96739.03;2080757;28;20212;-64
2022/05/15 04:59:52;;;;;;;3.65;2.58;;;;;;;9.95;70.49;96737.22;2080564;28;20197;-66